sensor_id;sensor_type;location;lat;lon;timestamp;P1;durP1;ratioP1;P2;durP2;ratioP2
18114;SDS011;9184;54.390;18.620;2023-07-28T00:00:04;5.63;;;3.10;;
18114;SDS011;9184;54.390;18.620;2023-07-28T00:00:36;6.65;;;3.40;;
18114;SDS011;9184;54.390;18.620;2023-07-28T00:01:06;4.70;;;3.10;;
18114;SDS011;9184;54.390;18.620;2023-07-28T00:01:37;6.28;;;3.30;;
18114;SDS011;9184;54.390;18.620;2023-07-28T00:02:08;6.68;;;3.40;;
18114;SDS011;9184;54.390;18.620;2023-07-28T00:02:39;8.23;;;3.38;;
18114;SDS011;9184;54.390;18.620;2023-07-28T00:03:09;5.32;;;2.92;;
18114;SDS011;9184;54.390;18.620;2023-07-28T00:03:40;5.13;;;2.78;;
18114;SDS011;9184;54.390;18.620;2023-07-28T00:04:11;6.18;;;2.90;;
18114;SDS011;9184;54.390;18.620;2023-07-28T00:04:42;11.55;;;3.88;;
18114;SDS011;9184;54.390;18.620;2023-07-28T00:05:12;6.53;;;3.10;;
18114;SDS011;9184;54.390;18.620;2023-07-28T00:05:42;4.45;;;3.13;;
18114;SDS011;9184;54.390;18.620;2023-07-28T00:06:14;6.50;;;3.13;;
18114;SDS011;9184;54.390;18.620;2023-07-28T00:06:45;5.82;;;3.28;;
18114;SDS011;9184;54.390;18.620;2023-07-28T00:07:15;8.73;;;3.20;;
18114;SDS011;9184;54.390;18.620;2023-07-28T00:07:47;6.97;;;3.67;;
18114;SDS011;9184;54.390;18.620;2023-07-28T00:08:17;7.72;;;2.67;;
18114;SDS011;9184;54.390;18.620;2023-07-28T00:08:48;4.97;;;2.67;;
18114;SDS011;9184;54.390;18.620;2023-07-28T00:09:18;4.72;;;2.95;;
18114;SDS011;9184;54.390;18.620;2023-07-28T00:09:50;4.90;;;3.47;;
18114;SDS011;9184;54.390;18.620;2023-07-28T00:10:20;6.05;;;3.10;;
18114;SDS011;9184;54.390;18.620;2023-07-28T00:10:51;10.48;;;2.97;;
18114;SDS011;9184;54.390;18.620;2023-07-28T00:11:22;6.13;;;3.50;;
18114;SDS011;9184;54.390;18.620;2023-07-28T00:11:55;5.60;;;2.92;;
18114;SDS011;9184;54.390;18.620;2023-07-28T00:12:26;5.35;;;3.08;;
18114;SDS011;9184;54.390;18.620;2023-07-28T00:12:56;4.65;;;3.28;;
18114;SDS011;9184;54.390;18.620;2023-07-28T00:13:27;6.53;;;3.40;;
18114;SDS011;9184;54.390;18.620;2023-07-28T00:13:58;4.47;;;3.05;;
18114;SDS011;9184;54.390;18.620;2023-07-28T00:14:29;5.68;;;3.47;;
18114;SDS011;9184;54.390;18.620;2023-07-28T00:14:59;6.30;;;3.78;;
18114;SDS011;9184;54.390;18.620;2023-07-28T00:15:30;5.88;;;3.15;;
18114;SDS011;9184;54.390;18.620;2023-07-28T00:16:01;7.10;;;3.17;;
18114;SDS011;9184;54.390;18.620;2023-07-28T00:16:32;7.65;;;3.70;;
18114;SDS011;9184;54.390;18.620;2023-07-28T00:17:02;4.95;;;3.35;;
18114;SDS011;9184;54.390;18.620;2023-07-28T00:17:33;7.88;;;3.88;;
18114;SDS011;9184;54.390;18.620;2023-07-28T00:18:04;7.90;;;2.95;;
18114;SDS011;9184;54.390;18.620;2023-07-28T00:18:35;6.13;;;2.80;;
18114;SDS011;9184;54.390;18.620;2023-07-28T00:19:05;5.78;;;3.22;;
18114;SDS011;9184;54.390;18.620;2023-07-28T00:19:36;9.18;;;5.78;;
18114;SDS011;9184;54.390;18.620;2023-07-28T00:20:08;10.18;;;4.50;;
18114;SDS011;9184;54.390;18.620;2023-07-28T00:20:38;10.38;;;4.20;;
18114;SDS011;9184;54.390;18.620;2023-07-28T00:21:09;5.68;;;3.65;;
18114;SDS011;9184;54.390;18.620;2023-07-28T00:21:39;7.45;;;3.70;;
18114;SDS011;9184;54.390;18.620;2023-07-28T00:22:11;8.95;;;3.88;;
18114;SDS011;9184;54.390;18.620;2023-07-28T00:22:41;8.32;;;3.45;;
18114;SDS011;9184;54.390;18.620;2023-07-28T00:23:12;8.95;;;3.75;;
18114;SDS011;9184;54.390;18.620;2023-07-28T00:23:43;5.72;;;3.55;;
18114;SDS011;9184;54.390;18.620;2023-07-28T00:24:13;8.18;;;3.33;;
18114;SDS011;9184;54.390;18.620;2023-07-28T00:24:44;5.75;;;3.28;;
18114;SDS011;9184;54.390;18.620;2023-07-28T00:25:15;6.22;;;3.65;;
18114;SDS011;9184;54.390;18.620;2023-07-28T00:25:46;5.13;;;3.20;;
18114;SDS011;9184;54.390;18.620;2023-07-28T00:26:16;10.25;;;4.50;;
18114;SDS011;9184;54.390;18.620;2023-07-28T00:26:48;6.13;;;4.10;;
18114;SDS011;9184;54.390;18.620;2023-07-28T00:27:19;7.45;;;3.58;;
18114;SDS011;9184;54.390;18.620;2023-07-28T00:27:50;6.03;;;3.55;;
18114;SDS011;9184;54.390;18.620;2023-07-28T00:28:20;4.53;;;2.80;;
18114;SDS011;9184;54.390;18.620;2023-07-28T00:28:51;4.95;;;3.45;;
18114;SDS011;9184;54.390;18.620;2023-07-28T00:29:22;5.72;;;2.97;;
18114;SDS011;9184;54.390;18.620;2023-07-28T00:29:53;5.97;;;3.65;;
18114;SDS011;9184;54.390;18.620;2023-07-28T00:30:23;5.47;;;3.00;;
18114;SDS011;9184;54.390;18.620;2023-07-28T00:30:54;4.55;;;3.40;;
18114;SDS011;9184;54.390;18.620;2023-07-28T00:31:25;4.85;;;3.13;;
18114;SDS011;9184;54.390;18.620;2023-07-28T00:31:56;6.70;;;3.22;;
18114;SDS011;9184;54.390;18.620;2023-07-28T00:32:26;7.40;;;3.45;;
18114;SDS011;9184;54.390;18.620;2023-07-28T00:32:57;5.55;;;3.30;;
18114;SDS011;9184;54.390;18.620;2023-07-28T00:33:28;6.45;;;3.38;;
18114;SDS011;9184;54.390;18.620;2023-07-28T00:33:59;5.90;;;3.60;;
18114;SDS011;9184;54.390;18.620;2023-07-28T00:34:29;11.68;;;3.80;;
18114;SDS011;9184;54.390;18.620;2023-07-28T00:35:00;4.75;;;3.38;;
18114;SDS011;9184;54.390;18.620;2023-07-28T00:35:30;5.75;;;3.25;;
18114;SDS011;9184;54.390;18.620;2023-07-28T00:36:02;6.43;;;3.60;;
18114;SDS011;9184;54.390;18.620;2023-07-28T00:36:32;6.93;;;3.20;;
18114;SDS011;9184;54.390;18.620;2023-07-28T00:37:03;7.88;;;3.92;;
18114;SDS011;9184;54.390;18.620;2023-07-28T00:37:33;9.23;;;4.30;;
18114;SDS011;9184;54.390;18.620;2023-07-28T00:38:05;4.28;;;3.28;;
18114;SDS011;9184;54.390;18.620;2023-07-28T00:38:35;8.25;;;3.33;;
18114;SDS011;9184;54.390;18.620;2023-07-28T00:39:06;6.03;;;3.83;;
18114;SDS011;9184;54.390;18.620;2023-07-28T00:39:36;7.60;;;3.13;;
18114;SDS011;9184;54.390;18.620;2023-07-28T00:40:08;5.53;;;3.42;;
18114;SDS011;9184;54.390;18.620;2023-07-28T00:40:38;7.38;;;3.75;;
18114;SDS011;9184;54.390;18.620;2023-07-28T00:41:09;10.50;;;4.03;;
18114;SDS011;9184;54.390;18.620;2023-07-28T00:41:39;10.88;;;3.83;;
18114;SDS011;9184;54.390;18.620;2023-07-28T00:42:12;7.10;;;3.50;;
18114;SDS011;9184;54.390;18.620;2023-07-28T00:42:43;8.30;;;3.83;;
18114;SDS011;9184;54.390;18.620;2023-07-28T00:43:13;9.63;;;3.72;;
18114;SDS011;9184;54.390;18.620;2023-07-28T00:43:44;10.55;;;3.50;;
18114;SDS011;9184;54.390;18.620;2023-07-28T00:44:15;5.43;;;3.83;;
18114;SDS011;9184;54.390;18.620;2023-07-28T00:44:47;6.57;;;3.28;;
18114;SDS011;9184;54.390;18.620;2023-07-28T00:45:17;8.48;;;3.38;;
18114;SDS011;9184;54.390;18.620;2023-07-28T00:45:49;6.78;;;3.63;;
18114;SDS011;9184;54.390;18.620;2023-07-28T00:46:20;7.65;;;3.15;;
18114;SDS011;9184;54.390;18.620;2023-07-28T00:46:50;5.43;;;3.50;;
18114;SDS011;9184;54.390;18.620;2023-07-28T00:47:21;8.20;;;4.03;;
18114;SDS011;9184;54.390;18.620;2023-07-28T00:47:52;6.25;;;3.78;;
18114;SDS011;9184;54.390;18.620;2023-07-28T00:48:23;8.70;;;3.63;;
18114;SDS011;9184;54.390;18.620;2023-07-28T00:48:54;6.20;;;3.45;;
18114;SDS011;9184;54.390;18.620;2023-07-28T00:49:25;10.35;;;3.60;;
18114;SDS011;9184;54.390;18.620;2023-07-28T00:49:56;8.70;;;3.70;;
18114;SDS011;9184;54.390;18.620;2023-07-28T00:50:27;11.75;;;3.88;;
18114;SDS011;9184;54.390;18.620;2023-07-28T00:50:58;9.05;;;3.58;;
18114;SDS011;9184;54.390;18.620;2023-07-28T00:51:28;9.43;;;3.60;;
18114;SDS011;9184;54.390;18.620;2023-07-28T00:52:00;7.97;;;3.28;;
18114;SDS011;9184;54.390;18.620;2023-07-28T00:52:31;6.65;;;3.47;;
18114;SDS011;9184;54.390;18.620;2023-07-28T00:53:02;6.82;;;3.30;;
18114;SDS011;9184;54.390;18.620;2023-07-28T00:53:32;11.82;;;3.75;;
18114;SDS011;9184;54.390;18.620;2023-07-28T00:54:04;7.40;;;3.70;;
18114;SDS011;9184;54.390;18.620;2023-07-28T00:54:35;8.25;;;3.80;;
18114;SDS011;9184;54.390;18.620;2023-07-28T00:55:06;5.18;;;3.70;;
18114;SDS011;9184;54.390;18.620;2023-07-28T00:55:37;6.68;;;3.35;;
18114;SDS011;9184;54.390;18.620;2023-07-28T00:56:08;8.25;;;3.78;;
18114;SDS011;9184;54.390;18.620;2023-07-28T00:56:40;7.10;;;3.60;;
18114;SDS011;9184;54.390;18.620;2023-07-28T00:57:10;7.05;;;3.63;;
18114;SDS011;9184;54.390;18.620;2023-07-28T00:57:42;7.13;;;3.78;;
18114;SDS011;9184;54.390;18.620;2023-07-28T00:58:14;9.30;;;4.10;;
18114;SDS011;9184;54.390;18.620;2023-07-28T00:58:44;7.72;;;4.28;;
18114;SDS011;9184;54.390;18.620;2023-07-28T00:59:15;8.68;;;3.88;;
18114;SDS011;9184;54.390;18.620;2023-07-28T00:59:46;10.48;;;4.05;;
18114;SDS011;9184;54.390;18.620;2023-07-28T01:00:18;6.07;;;3.83;;
18114;SDS011;9184;54.390;18.620;2023-07-28T01:00:48;8.65;;;3.45;;
18114;SDS011;9184;54.390;18.620;2023-07-28T01:01:18;8.50;;;3.45;;
18114;SDS011;9184;54.390;18.620;2023-07-28T01:02:46;8.43;;;3.67;;
18114;SDS011;9184;54.390;18.620;2023-07-28T01:03:17;7.53;;;3.85;;
18114;SDS011;9184;54.390;18.620;2023-07-28T01:03:49;8.32;;;4.00;;
18114;SDS011;9184;54.390;18.620;2023-07-28T01:04:20;8.75;;;3.72;;
18114;SDS011;9184;54.390;18.620;2023-07-28T01:04:50;8.68;;;4.18;;
18114;SDS011;9184;54.390;18.620;2023-07-28T01:05:22;8.60;;;4.07;;
18114;SDS011;9184;54.390;18.620;2023-07-28T01:05:59;6.20;;;4.03;;
18114;SDS011;9184;54.390;18.620;2023-07-28T01:06:35;9.02;;;3.63;;
18114;SDS011;9184;54.390;18.620;2023-07-28T01:07:09;7.47;;;3.75;;
18114;SDS011;9184;54.390;18.620;2023-07-28T01:07:42;10.35;;;3.80;;
18114;SDS011;9184;54.390;18.620;2023-07-28T01:08:16;7.43;;;3.80;;
18114;SDS011;9184;54.390;18.620;2023-07-28T01:08:50;6.55;;;4.28;;
18114;SDS011;9184;54.390;18.620;2023-07-28T01:09:24;7.45;;;4.25;;
18114;SDS011;9184;54.390;18.620;2023-07-28T01:10:01;12.20;;;4.20;;
18114;SDS011;9184;54.390;18.620;2023-07-28T01:10:32;6.45;;;3.97;;
18114;SDS011;9184;54.390;18.620;2023-07-28T01:11:02;7.40;;;4.55;;
18114;SDS011;9184;54.390;18.620;2023-07-28T01:11:33;6.10;;;4.18;;
18114;SDS011;9184;54.390;18.620;2023-07-28T01:12:07;7.00;;;4.25;;
18114;SDS011;9184;54.390;18.620;2023-07-28T01:12:37;9.02;;;5.05;;
18114;SDS011;9184;54.390;18.620;2023-07-28T01:13:09;8.20;;;4.55;;
18114;SDS011;9184;54.390;18.620;2023-07-28T01:13:40;9.40;;;5.25;;
18114;SDS011;9184;54.390;18.620;2023-07-28T01:14:11;9.63;;;4.28;;
18114;SDS011;9184;54.390;18.620;2023-07-28T01:14:42;8.57;;;4.45;;
18114;SDS011;9184;54.390;18.620;2023-07-28T01:15:13;14.65;;;4.05;;
18114;SDS011;9184;54.390;18.620;2023-07-28T01:15:45;6.38;;;4.25;;
18114;SDS011;9184;54.390;18.620;2023-07-28T01:16:15;18.70;;;4.72;;
18114;SDS011;9184;54.390;18.620;2023-07-28T01:16:46;10.93;;;4.15;;
18114;SDS011;9184;54.390;18.620;2023-07-28T01:17:16;6.95;;;4.68;;
18114;SDS011;9184;54.390;18.620;2023-07-28T01:17:48;8.07;;;4.30;;
18114;SDS011;9184;54.390;18.620;2023-07-28T01:18:19;12.35;;;4.55;;
18114;SDS011;9184;54.390;18.620;2023-07-28T01:18:49;9.05;;;4.55;;
18114;SDS011;9184;54.390;18.620;2023-07-28T01:19:20;7.03;;;4.43;;
18114;SDS011;9184;54.390;18.620;2023-07-28T01:19:52;10.68;;;5.35;;
18114;SDS011;9184;54.390;18.620;2023-07-28T01:20:24;6.57;;;4.32;;
18114;SDS011;9184;54.390;18.620;2023-07-28T01:20:57;9.02;;;5.00;;
18114;SDS011;9184;54.390;18.620;2023-07-28T01:21:30;11.07;;;5.15;;
18114;SDS011;9184;54.390;18.620;2023-07-28T01:22:06;8.98;;;4.82;;
18114;SDS011;9184;54.390;18.620;2023-07-28T01:22:45;7.47;;;4.82;;
18114;SDS011;9184;54.390;18.620;2023-07-28T01:23:18;7.63;;;5.00;;
18114;SDS011;9184;54.390;18.620;2023-07-28T01:23:52;12.10;;;6.22;;
18114;SDS011;9184;54.390;18.620;2023-07-28T01:24:28;8.07;;;5.05;;
18114;SDS011;9184;54.390;18.620;2023-07-28T01:25:01;11.82;;;5.78;;
18114;SDS011;9184;54.390;18.620;2023-07-28T01:25:49;8.98;;;4.95;;
18114;SDS011;9184;54.390;18.620;2023-07-28T01:26:26;9.75;;;5.15;;
18114;SDS011;9184;54.390;18.620;2023-07-28T01:26:57;9.27;;;4.85;;
18114;SDS011;9184;54.390;18.620;2023-07-28T01:27:27;8.63;;;4.32;;
18114;SDS011;9184;54.390;18.620;2023-07-28T01:27:58;12.05;;;5.32;;
18114;SDS011;9184;54.390;18.620;2023-07-28T01:28:31;9.60;;;4.72;;
18114;SDS011;9184;54.390;18.620;2023-07-28T01:29:02;10.43;;;5.03;;
18114;SDS011;9184;54.390;18.620;2023-07-28T01:29:33;10.15;;;4.90;;
18114;SDS011;9184;54.390;18.620;2023-07-28T01:30:05;7.60;;;4.53;;
18114;SDS011;9184;54.390;18.620;2023-07-28T01:30:36;7.90;;;5.18;;
18114;SDS011;9184;54.390;18.620;2023-07-28T01:31:07;10.18;;;4.72;;
18114;SDS011;9184;54.390;18.620;2023-07-28T01:31:38;17.42;;;5.90;;
18114;SDS011;9184;54.390;18.620;2023-07-28T01:32:10;8.07;;;4.72;;
18114;SDS011;9184;54.390;18.620;2023-07-28T01:32:41;8.07;;;4.55;;
18114;SDS011;9184;54.390;18.620;2023-07-28T01:33:11;10.10;;;4.22;;
18114;SDS011;9184;54.390;18.620;2023-07-28T01:33:42;9.77;;;4.05;;
18114;SDS011;9184;54.390;18.620;2023-07-28T01:34:13;8.05;;;4.30;;
18114;SDS011;9184;54.390;18.620;2023-07-28T01:34:44;6.53;;;4.40;;
18114;SDS011;9184;54.390;18.620;2023-07-28T01:35:14;9.48;;;5.18;;
18114;SDS011;9184;54.390;18.620;2023-07-28T01:35:45;11.38;;;4.55;;
18114;SDS011;9184;54.390;18.620;2023-07-28T01:36:16;10.00;;;4.20;;
18114;SDS011;9184;54.390;18.620;2023-07-28T01:36:46;7.57;;;4.28;;
18114;SDS011;9184;54.390;18.620;2023-07-28T01:37:17;10.07;;;4.53;;
18114;SDS011;9184;54.390;18.620;2023-07-28T01:37:47;7.68;;;4.65;;
18114;SDS011;9184;54.390;18.620;2023-07-28T01:38:20;9.25;;;4.38;;
18114;SDS011;9184;54.390;18.620;2023-07-28T01:38:51;7.38;;;4.97;;
18114;SDS011;9184;54.390;18.620;2023-07-28T01:39:21;9.60;;;5.13;;
18114;SDS011;9184;54.390;18.620;2023-07-28T01:39:52;15.07;;;4.90;;
18114;SDS011;9184;54.390;18.620;2023-07-28T01:40:24;11.55;;;4.10;;
18114;SDS011;9184;54.390;18.620;2023-07-28T01:40:55;12.07;;;5.10;;
18114;SDS011;9184;54.390;18.620;2023-07-28T01:41:27;9.20;;;4.53;;
18114;SDS011;9184;54.390;18.620;2023-07-28T01:41:57;10.00;;;5.10;;
18114;SDS011;9184;54.390;18.620;2023-07-28T01:42:29;10.65;;;5.00;;
18114;SDS011;9184;54.390;18.620;2023-07-28T01:42:59;7.80;;;5.28;;
18114;SDS011;9184;54.390;18.620;2023-07-28T01:43:30;9.65;;;5.47;;
18114;SDS011;9184;54.390;18.620;2023-07-28T01:44:00;8.13;;;5.03;;
18114;SDS011;9184;54.390;18.620;2023-07-28T01:44:32;8.40;;;4.50;;
18114;SDS011;9184;54.390;18.620;2023-07-28T01:45:03;10.52;;;4.88;;
18114;SDS011;9184;54.390;18.620;2023-07-28T01:45:33;11.00;;;4.53;;
18114;SDS011;9184;54.390;18.620;2023-07-28T01:46:04;6.93;;;4.78;;
18114;SDS011;9184;54.390;18.620;2023-07-28T01:46:35;6.75;;;4.45;;
18114;SDS011;9184;54.390;18.620;2023-07-28T01:47:06;9.68;;;4.50;;
18114;SDS011;9184;54.390;18.620;2023-07-28T01:47:36;15.45;;;4.55;;
18114;SDS011;9184;54.390;18.620;2023-07-28T01:48:07;7.57;;;4.57;;
18114;SDS011;9184;54.390;18.620;2023-07-28T01:48:39;16.88;;;4.80;;
18114;SDS011;9184;54.390;18.620;2023-07-28T01:49:09;6.55;;;4.28;;
18114;SDS011;9184;54.390;18.620;2023-07-28T01:49:40;10.15;;;5.05;;
18114;SDS011;9184;54.390;18.620;2023-07-28T01:50:10;8.35;;;5.15;;
18114;SDS011;9184;54.390;18.620;2023-07-28T01:50:41;7.28;;;5.13;;
18114;SDS011;9184;54.390;18.620;2023-07-28T01:51:13;11.75;;;5.22;;
18114;SDS011;9184;54.390;18.620;2023-07-28T01:51:43;14.68;;;4.95;;
18114;SDS011;9184;54.390;18.620;2023-07-28T01:52:13;6.68;;;5.10;;
18114;SDS011;9184;54.390;18.620;2023-07-28T01:52:44;8.40;;;5.75;;
18114;SDS011;9184;54.390;18.620;2023-07-28T01:53:15;8.60;;;4.90;;
18114;SDS011;9184;54.390;18.620;2023-07-28T01:53:46;9.32;;;5.63;;
18114;SDS011;9184;54.390;18.620;2023-07-28T01:54:16;11.77;;;5.35;;
18114;SDS011;9184;54.390;18.620;2023-07-28T01:54:48;12.02;;;4.97;;
18114;SDS011;9184;54.390;18.620;2023-07-28T01:55:18;8.05;;;5.20;;
18114;SDS011;9184;54.390;18.620;2023-07-28T01:55:49;9.98;;;5.30;;
18114;SDS011;9184;54.390;18.620;2023-07-28T01:56:19;7.60;;;4.65;;
18114;SDS011;9184;54.390;18.620;2023-07-28T01:56:52;6.82;;;4.60;;
18114;SDS011;9184;54.390;18.620;2023-07-28T01:57:22;13.02;;;5.00;;
18114;SDS011;9184;54.390;18.620;2023-07-28T01:57:58;7.10;;;4.85;;
18114;SDS011;9184;54.390;18.620;2023-07-28T01:58:29;17.17;;;5.57;;
18114;SDS011;9184;54.390;18.620;2023-07-28T01:59:00;8.73;;;4.72;;
18114;SDS011;9184;54.390;18.620;2023-07-28T01:59:31;13.13;;;5.20;;
18114;SDS011;9184;54.390;18.620;2023-07-28T02:00:01;14.20;;;6.03;;
18114;SDS011;9184;54.390;18.620;2023-07-28T02:00:33;9.70;;;4.80;;
18114;SDS011;9184;54.390;18.620;2023-07-28T02:01:04;12.63;;;5.25;;
18114;SDS011;9184;54.390;18.620;2023-07-28T02:01:35;9.05;;;4.95;;
18114;SDS011;9184;54.390;18.620;2023-07-28T02:02:06;9.02;;;5.25;;
18114;SDS011;9184;54.390;18.620;2023-07-28T02:02:36;12.00;;;5.53;;
18114;SDS011;9184;54.390;18.620;2023-07-28T02:03:07;10.23;;;5.30;;
18114;SDS011;9184;54.390;18.620;2023-07-28T02:03:38;9.15;;;5.30;;
18114;SDS011;9184;54.390;18.620;2023-07-28T02:04:08;11.80;;;5.60;;
18114;SDS011;9184;54.390;18.620;2023-07-28T02:04:40;10.25;;;5.00;;
18114;SDS011;9184;54.390;18.620;2023-07-28T02:05:10;15.50;;;5.47;;
18114;SDS011;9184;54.390;18.620;2023-07-28T02:05:41;8.63;;;5.55;;
18114;SDS011;9184;54.390;18.620;2023-07-28T02:06:11;9.82;;;4.95;;
18114;SDS011;9184;54.390;18.620;2023-07-28T02:06:43;15.65;;;5.80;;
18114;SDS011;9184;54.390;18.620;2023-07-28T02:07:13;9.60;;;5.45;;
18114;SDS011;9184;54.390;18.620;2023-07-28T02:07:43;9.55;;;5.70;;
18114;SDS011;9184;54.390;18.620;2023-07-28T02:08:14;15.10;;;5.55;;
18114;SDS011;9184;54.390;18.620;2023-07-28T02:08:44;9.00;;;5.00;;
18114;SDS011;9184;54.390;18.620;2023-07-28T02:09:16;9.55;;;4.70;;
18114;SDS011;9184;54.390;18.620;2023-07-28T02:09:47;13.00;;;6.07;;
18114;SDS011;9184;54.390;18.620;2023-07-28T02:10:18;10.35;;;5.30;;
18114;SDS011;9184;54.390;18.620;2023-07-28T02:10:48;7.95;;;5.05;;
18114;SDS011;9184;54.390;18.620;2023-07-28T02:11:19;10.18;;;4.80;;
18114;SDS011;9184;54.390;18.620;2023-07-28T02:11:52;10.32;;;5.82;;
18114;SDS011;9184;54.390;18.620;2023-07-28T02:12:22;8.85;;;5.45;;
18114;SDS011;9184;54.390;18.620;2023-07-28T02:12:52;10.80;;;5.32;;
18114;SDS011;9184;54.390;18.620;2023-07-28T02:13:24;8.95;;;4.80;;
18114;SDS011;9184;54.390;18.620;2023-07-28T02:13:54;9.40;;;5.97;;
18114;SDS011;9184;54.390;18.620;2023-07-28T02:14:25;16.25;;;4.88;;
18114;SDS011;9184;54.390;18.620;2023-07-28T02:14:55;9.48;;;5.20;;
18114;SDS011;9184;54.390;18.620;2023-07-28T02:15:27;12.95;;;5.55;;
18114;SDS011;9184;54.390;18.620;2023-07-28T02:15:57;9.68;;;5.55;;
18114;SDS011;9184;54.390;18.620;2023-07-28T02:16:28;16.13;;;5.80;;
18114;SDS011;9184;54.390;18.620;2023-07-28T02:17:00;10.57;;;5.80;;
18114;SDS011;9184;54.390;18.620;2023-07-28T02:17:33;10.20;;;5.57;;
18114;SDS011;9184;54.390;18.620;2023-07-28T02:18:04;9.18;;;5.47;;
18114;SDS011;9184;54.390;18.620;2023-07-28T02:18:34;13.07;;;5.22;;
18114;SDS011;9184;54.390;18.620;2023-07-28T02:19:06;14.40;;;5.53;;
18114;SDS011;9184;54.390;18.620;2023-07-28T02:19:38;12.25;;;5.25;;
18114;SDS011;9184;54.390;18.620;2023-07-28T02:20:08;12.82;;;5.88;;
18114;SDS011;9184;54.390;18.620;2023-07-28T02:20:42;11.98;;;5.30;;
18114;SDS011;9184;54.390;18.620;2023-07-28T02:21:14;12.18;;;5.57;;
18114;SDS011;9184;54.390;18.620;2023-07-28T02:21:44;8.63;;;4.82;;
18114;SDS011;9184;54.390;18.620;2023-07-28T02:22:15;10.48;;;5.90;;
18114;SDS011;9184;54.390;18.620;2023-07-28T02:22:45;8.02;;;5.30;;
18114;SDS011;9184;54.390;18.620;2023-07-28T02:23:17;9.15;;;5.13;;
18114;SDS011;9184;54.390;18.620;2023-07-28T02:23:47;11.80;;;5.57;;
18114;SDS011;9184;54.390;18.620;2023-07-28T02:24:18;12.45;;;5.43;;
18114;SDS011;9184;54.390;18.620;2023-07-28T02:24:48;13.00;;;5.10;;
18114;SDS011;9184;54.390;18.620;2023-07-28T02:25:19;13.38;;;4.93;;
18114;SDS011;9184;54.390;18.620;2023-07-28T02:25:50;9.57;;;5.68;;
18114;SDS011;9184;54.390;18.620;2023-07-28T02:26:21;7.38;;;5.25;;
18114;SDS011;9184;54.390;18.620;2023-07-28T02:26:53;10.55;;;6.03;;
18114;SDS011;9184;54.390;18.620;2023-07-28T02:27:24;13.68;;;5.07;;
18114;SDS011;9184;54.390;18.620;2023-07-28T02:27:55;9.90;;;5.15;;
18114;SDS011;9184;54.390;18.620;2023-07-28T02:28:26;13.13;;;5.80;;
18114;SDS011;9184;54.390;18.620;2023-07-28T02:28:57;10.73;;;5.53;;
18114;SDS011;9184;54.390;18.620;2023-07-28T02:29:27;9.18;;;5.05;;
18114;SDS011;9184;54.390;18.620;2023-07-28T02:29:58;11.65;;;5.40;;
18114;SDS011;9184;54.390;18.620;2023-07-28T02:30:29;14.23;;;5.90;;
18114;SDS011;9184;54.390;18.620;2023-07-28T02:30:59;10.68;;;5.63;;
18114;SDS011;9184;54.390;18.620;2023-07-28T02:31:30;10.20;;;5.20;;
18114;SDS011;9184;54.390;18.620;2023-07-28T02:32:00;8.70;;;5.28;;
18114;SDS011;9184;54.390;18.620;2023-07-28T02:32:32;9.68;;;5.90;;
18114;SDS011;9184;54.390;18.620;2023-07-28T02:33:03;10.30;;;5.70;;
18114;SDS011;9184;54.390;18.620;2023-07-28T02:33:33;12.60;;;6.13;;
18114;SDS011;9184;54.390;18.620;2023-07-28T02:34:06;9.75;;;5.25;;
18114;SDS011;9184;54.390;18.620;2023-07-28T02:34:37;9.95;;;5.38;;
18114;SDS011;9184;54.390;18.620;2023-07-28T02:35:08;7.80;;;4.95;;
18114;SDS011;9184;54.390;18.620;2023-07-28T02:35:40;11.63;;;5.50;;
18114;SDS011;9184;54.390;18.620;2023-07-28T02:36:11;10.52;;;5.70;;
18114;SDS011;9184;54.390;18.620;2023-07-28T02:36:42;8.07;;;5.32;;
18114;SDS011;9184;54.390;18.620;2023-07-28T02:37:13;9.02;;;5.45;;
18114;SDS011;9184;54.390;18.620;2023-07-28T02:37:44;8.40;;;5.47;;
18114;SDS011;9184;54.390;18.620;2023-07-28T02:38:15;9.95;;;4.97;;
18114;SDS011;9184;54.390;18.620;2023-07-28T02:38:46;10.65;;;5.15;;
18114;SDS011;9184;54.390;18.620;2023-07-28T02:39:16;8.75;;;5.68;;
18114;SDS011;9184;54.390;18.620;2023-07-28T02:39:47;7.93;;;4.80;;
18114;SDS011;9184;54.390;18.620;2023-07-28T02:40:17;12.25;;;5.50;;
18114;SDS011;9184;54.390;18.620;2023-07-28T02:40:49;11.13;;;5.75;;
18114;SDS011;9184;54.390;18.620;2023-07-28T02:41:19;8.68;;;5.32;;
18114;SDS011;9184;54.390;18.620;2023-07-28T02:41:50;11.48;;;5.57;;
18114;SDS011;9184;54.390;18.620;2023-07-28T02:42:22;11.30;;;5.00;;
18114;SDS011;9184;54.390;18.620;2023-07-28T02:42:55;8.77;;;4.97;;
18114;SDS011;9184;54.390;18.620;2023-07-28T02:43:27;7.95;;;4.95;;
18114;SDS011;9184;54.390;18.620;2023-07-28T02:43:57;9.43;;;5.35;;
18114;SDS011;9184;54.390;18.620;2023-07-28T02:44:28;8.32;;;5.43;;
18114;SDS011;9184;54.390;18.620;2023-07-28T02:44:58;24.90;;;5.63;;
18114;SDS011;9184;54.390;18.620;2023-07-28T02:45:28;10.93;;;4.60;;
18114;SDS011;9184;54.390;18.620;2023-07-28T02:46:00;9.00;;;5.60;;
18114;SDS011;9184;54.390;18.620;2023-07-28T02:46:30;10.27;;;5.88;;
18114;SDS011;9184;54.390;18.620;2023-07-28T02:47:01;11.38;;;5.13;;
18114;SDS011;9184;54.390;18.620;2023-07-28T02:47:31;7.07;;;4.72;;
18114;SDS011;9184;54.390;18.620;2023-07-28T02:48:03;8.98;;;5.75;;
18114;SDS011;9184;54.390;18.620;2023-07-28T02:48:34;11.07;;;6.20;;
18114;SDS011;9184;54.390;18.620;2023-07-28T02:49:04;8.95;;;4.85;;
18114;SDS011;9184;54.390;18.620;2023-07-28T02:49:34;11.80;;;5.50;;
18114;SDS011;9184;54.390;18.620;2023-07-28T02:50:06;7.90;;;5.50;;
18114;SDS011;9184;54.390;18.620;2023-07-28T02:50:37;11.35;;;5.38;;
18114;SDS011;9184;54.390;18.620;2023-07-28T02:51:07;11.68;;;5.25;;
18114;SDS011;9184;54.390;18.620;2023-07-28T02:51:38;9.25;;;5.20;;
18114;SDS011;9184;54.390;18.620;2023-07-28T02:52:09;10.00;;;4.90;;
18114;SDS011;9184;54.390;18.620;2023-07-28T02:52:40;7.50;;;4.55;;
18114;SDS011;9184;54.390;18.620;2023-07-28T02:53:10;8.95;;;5.40;;
18114;SDS011;9184;54.390;18.620;2023-07-28T02:53:41;9.77;;;5.25;;
18114;SDS011;9184;54.390;18.620;2023-07-28T02:54:12;7.93;;;5.45;;
18114;SDS011;9184;54.390;18.620;2023-07-28T02:54:43;8.40;;;4.95;;
18114;SDS011;9184;54.390;18.620;2023-07-28T02:55:13;9.43;;;5.20;;
18114;SDS011;9184;54.390;18.620;2023-07-28T02:55:44;5.85;;;4.53;;
18114;SDS011;9184;54.390;18.620;2023-07-28T02:56:15;9.05;;;4.78;;
18114;SDS011;9184;54.390;18.620;2023-07-28T02:56:46;10.55;;;5.22;;
18114;SDS011;9184;54.390;18.620;2023-07-28T02:57:16;13.55;;;5.25;;
18114;SDS011;9184;54.390;18.620;2023-07-28T02:57:48;9.90;;;5.05;;
18114;SDS011;9184;54.390;18.620;2023-07-28T02:58:20;9.10;;;5.25;;
18114;SDS011;9184;54.390;18.620;2023-07-28T02:58:50;12.20;;;4.88;;
18114;SDS011;9184;54.390;18.620;2023-07-28T02:59:21;10.25;;;5.18;;
18114;SDS011;9184;54.390;18.620;2023-07-28T02:59:51;8.80;;;4.90;;
18114;SDS011;9184;54.390;18.620;2023-07-28T03:00:23;10.05;;;5.53;;
18114;SDS011;9184;54.390;18.620;2023-07-28T03:00:53;11.95;;;5.75;;
18114;SDS011;9184;54.390;18.620;2023-07-28T03:01:24;7.80;;;4.72;;
18114;SDS011;9184;54.390;18.620;2023-07-28T03:01:54;8.15;;;4.88;;
18114;SDS011;9184;54.390;18.620;2023-07-28T03:02:27;11.57;;;4.68;;
18114;SDS011;9184;54.390;18.620;2023-07-28T03:02:58;8.82;;;4.97;;
18114;SDS011;9184;54.390;18.620;2023-07-28T03:03:28;9.98;;;5.10;;
18114;SDS011;9184;54.390;18.620;2023-07-28T03:03:58;7.32;;;4.50;;
18114;SDS011;9184;54.390;18.620;2023-07-28T03:04:29;7.45;;;4.88;;
18114;SDS011;9184;54.390;18.620;2023-07-28T03:05:01;11.30;;;5.32;;
18114;SDS011;9184;54.390;18.620;2023-07-28T03:05:31;11.85;;;5.35;;
18114;SDS011;9184;54.390;18.620;2023-07-28T03:06:02;16.65;;;5.18;;
18114;SDS011;9184;54.390;18.620;2023-07-28T03:06:32;8.75;;;5.82;;
18114;SDS011;9184;54.390;18.620;2023-07-28T03:07:03;10.98;;;5.80;;
18114;SDS011;9184;54.390;18.620;2023-07-28T03:07:34;9.35;;;5.03;;